MMHO

General Ignacio P. Garcia International Airport

Airport
ICAO code
MMHO
IATA Code
HMO
Summary
ICAO Region
CARSAM
ICAO Territory
Location

La Manga, Sonora

Serving
Hermosillo
Elevation
627 ft
Coordinates
29° 5' 45" N , 111° 2' 52" W
KCC
Metar
MMHO 221840Z 14004KT 10SM SKC 35/M09 A2989 RMK HZY

Hermosillo International Airport, also known by its ceremonial name, General Ignacio L. Pesqueira International Airport, is an international airport located in Hermosillo, Sonora, Mexico.

Climatology

Hot Desert Climate (Köppen climate classification BWh)

Runways

Designator Length Width Surface Rops
11/29 1100 30 ASP Yes/Yes
5/23 2300 45 ASP Yes/Yes

Airport map

Aerial View

SKYbrary Partners:

Safety knowledge contributed by: